sensor_id;sensor_type;location;lat;lon;timestamp;temperature;humidity
21149;DHT22;10732;51.472;6.466;2023-09-12T00:00:48;20.20;99.90
21149;DHT22;10732;51.472;6.466;2023-09-12T00:03:14;20.30;99.90
21149;DHT22;10732;51.472;6.466;2023-09-12T00:05:40;20.30;99.90
21149;DHT22;10732;51.472;6.466;2023-09-12T00:08:06;20.20;99.90
21149;DHT22;10732;51.472;6.466;2023-09-12T00:10:31;20.20;99.90
21149;DHT22;10732;51.472;6.466;2023-09-12T00:12:57;20.10;99.90
21149;DHT22;10732;51.472;6.466;2023-09-12T00:15:23;20.20;99.90
21149;DHT22;10732;51.472;6.466;2023-09-12T00:17:49;20.00;99.90
21149;DHT22;10732;51.472;6.466;2023-09-12T00:20:15;20.00;99.90
21149;DHT22;10732;51.472;6.466;2023-09-12T00:22:40;20.00;99.90
21149;DHT22;10732;51.472;6.466;2023-09-12T00:25:06;19.90;99.90
21149;DHT22;10732;51.472;6.466;2023-09-12T00:27:32;20.00;99.90
21149;DHT22;10732;51.472;6.466;2023-09-12T00:29:57;19.90;99.90
21149;DHT22;10732;51.472;6.466;2023-09-12T00:32:23;19.80;99.90
21149;DHT22;10732;51.472;6.466;2023-09-12T00:34:48;19.90;99.90
21149;DHT22;10732;51.472;6.466;2023-09-12T00:37:14;19.90;99.90
21149;DHT22;10732;51.472;6.466;2023-09-12T00:39:39;19.90;99.90
21149;DHT22;10732;51.472;6.466;2023-09-12T00:42:05;19.80;99.90
21149;DHT22;10732;51.472;6.466;2023-09-12T00:44:33;19.70;99.90
21149;DHT22;10732;51.472;6.466;2023-09-12T00:47:00;19.70;99.90
21149;DHT22;10732;51.472;6.466;2023-09-12T00:49:26;19.70;99.90
21149;DHT22;10732;51.472;6.466;2023-09-12T00:51:54;19.60;99.90
21149;DHT22;10732;51.472;6.466;2023-09-12T00:54:21;19.60;99.90
21149;DHT22;10732;51.472;6.466;2023-09-12T00:56:47;19.50;99.90
21149;DHT22;10732;51.472;6.466;2023-09-12T00:59:14;19.50;99.90
21149;DHT22;10732;51.472;6.466;2023-09-12T01:01:41;19.50;99.90
21149;DHT22;10732;51.472;6.466;2023-09-12T01:04:07;19.50;99.90
21149;DHT22;10732;51.472;6.466;2023-09-12T01:06:33;19.60;99.90
21149;DHT22;10732;51.472;6.466;2023-09-12T01:09:00;19.50;99.90
21149;DHT22;10732;51.472;6.466;2023-09-12T01:11:26;19.50;99.90
21149;DHT22;10732;51.472;6.466;2023-09-12T01:13:52;19.50;99.90
21149;DHT22;10732;51.472;6.466;2023-09-12T01:16:17;19.50;99.90
21149;DHT22;10732;51.472;6.466;2023-09-12T01:18:43;19.50;99.90
21149;DHT22;10732;51.472;6.466;2023-09-12T01:27:18;19.50;99.90
21149;DHT22;10732;51.472;6.466;2023-09-12T01:29:45;19.50;99.90
21149;DHT22;10732;51.472;6.466;2023-09-12T01:32:12;19.50;99.90
21149;DHT22;10732;51.472;6.466;2023-09-12T01:34:39;19.50;99.90
21149;DHT22;10732;51.472;6.466;2023-09-12T01:37:04;19.50;99.90
21149;DHT22;10732;51.472;6.466;2023-09-12T01:39:30;19.50;99.90
21149;DHT22;10732;51.472;6.466;2023-09-12T01:41:57;19.50;99.90
21149;DHT22;10732;51.472;6.466;2023-09-12T01:44:25;19.40;99.90
21149;DHT22;10732;51.472;6.466;2023-09-12T01:46:53;19.30;99.90
21149;DHT22;10732;51.472;6.466;2023-09-12T01:49:22;19.20;99.90
21149;DHT22;10732;51.472;6.466;2023-09-12T01:51:48;19.10;99.90
21149;DHT22;10732;51.472;6.466;2023-09-12T01:54:14;19.00;99.90
21149;DHT22;10732;51.472;6.466;2023-09-12T01:56:40;18.90;99.90
21149;DHT22;10732;51.472;6.466;2023-09-12T01:59:07;18.80;99.90
21149;DHT22;10732;51.472;6.466;2023-09-12T02:01:33;18.90;99.90
21149;DHT22;10732;51.472;6.466;2023-09-12T02:03:58;18.80;99.90
21149;DHT22;10732;51.472;6.466;2023-09-12T02:06:24;18.80;99.90
21149;DHT22;10732;51.472;6.466;2023-09-12T02:08:49;18.80;99.90
21149;DHT22;10732;51.472;6.466;2023-09-12T02:11:15;18.80;99.90
21149;DHT22;10732;51.472;6.466;2023-09-12T02:13:40;18.80;99.90
21149;DHT22;10732;51.472;6.466;2023-09-12T02:16:06;18.80;99.90
21149;DHT22;10732;51.472;6.466;2023-09-12T02:18:31;18.90;99.90
21149;DHT22;10732;51.472;6.466;2023-09-12T02:21:00;18.90;99.90
21149;DHT22;10732;51.472;6.466;2023-09-12T02:23:25;18.90;99.90
21149;DHT22;10732;51.472;6.466;2023-09-12T02:25:51;18.90;99.90
21149;DHT22;10732;51.472;6.466;2023-09-12T02:28:17;18.80;99.90
21149;DHT22;10732;51.472;6.466;2023-09-12T02:30:42;18.90;99.90
21149;DHT22;10732;51.472;6.466;2023-09-12T02:33:08;19.00;99.90
21149;DHT22;10732;51.472;6.466;2023-09-12T02:35:33;18.90;99.90
21149;DHT22;10732;51.472;6.466;2023-09-12T02:37:59;18.90;99.90
21149;DHT22;10732;51.472;6.466;2023-09-12T02:40:25;18.90;99.90
21149;DHT22;10732;51.472;6.466;2023-09-12T02:42:51;18.80;99.90
21149;DHT22;10732;51.472;6.466;2023-09-12T02:45:16;18.80;99.90
21149;DHT22;10732;51.472;6.466;2023-09-12T02:47:42;18.80;99.90
21149;DHT22;10732;51.472;6.466;2023-09-12T02:50:11;18.80;99.90
21149;DHT22;10732;51.472;6.466;2023-09-12T02:52:37;18.80;99.90
21149;DHT22;10732;51.472;6.466;2023-09-12T02:55:03;18.80;99.90
21149;DHT22;10732;51.472;6.466;2023-09-12T02:57:29;18.80;99.90
21149;DHT22;10732;51.472;6.466;2023-09-12T02:59:54;18.80;99.90
21149;DHT22;10732;51.472;6.466;2023-09-12T03:02:20;18.80;99.90
21149;DHT22;10732;51.472;6.466;2023-09-12T03:04:45;18.70;99.90
21149;DHT22;10732;51.472;6.466;2023-09-12T03:07:11;18.70;99.90
21149;DHT22;10732;51.472;6.466;2023-09-12T03:09:37;18.70;99.90
21149;DHT22;10732;51.472;6.466;2023-09-12T03:12:04;18.70;99.90
21149;DHT22;10732;51.472;6.466;2023-09-12T03:14:30;18.70;99.90
21149;DHT22;10732;51.472;6.466;2023-09-12T03:16:55;18.70;99.90
21149;DHT22;10732;51.472;6.466;2023-09-12T03:19:21;18.60;99.90
21149;DHT22;10732;51.472;6.466;2023-09-12T03:21:47;18.70;99.90
21149;DHT22;10732;51.472;6.466;2023-09-12T03:24:12;18.70;99.90
21149;DHT22;10732;51.472;6.466;2023-09-12T03:26:38;18.70;99.90
21149;DHT22;10732;51.472;6.466;2023-09-12T03:29:04;18.80;99.90
21149;DHT22;10732;51.472;6.466;2023-09-12T03:31:30;18.70;99.90
21149;DHT22;10732;51.472;6.466;2023-09-12T03:33:56;18.70;99.90
21149;DHT22;10732;51.472;6.466;2023-09-12T03:36:21;18.70;99.90
21149;DHT22;10732;51.472;6.466;2023-09-12T03:38:47;18.70;99.90
21149;DHT22;10732;51.472;6.466;2023-09-12T03:41:13;18.60;99.90
21149;DHT22;10732;51.472;6.466;2023-09-12T03:43:39;18.50;99.90
21149;DHT22;10732;51.472;6.466;2023-09-12T03:46:04;18.60;99.90
21149;DHT22;10732;51.472;6.466;2023-09-12T03:48:30;18.50;99.90
21149;DHT22;10732;51.472;6.466;2023-09-12T03:50:57;18.40;99.90
21149;DHT22;10732;51.472;6.466;2023-09-12T03:53:22;18.40;99.90
21149;DHT22;10732;51.472;6.466;2023-09-12T03:55:48;18.40;99.90
21149;DHT22;10732;51.472;6.466;2023-09-12T03:58:13;18.40;99.90
21149;DHT22;10732;51.472;6.466;2023-09-12T04:00:39;18.30;99.90
21149;DHT22;10732;51.472;6.466;2023-09-12T04:03:04;18.30;99.90
21149;DHT22;10732;51.472;6.466;2023-09-12T04:05:30;18.30;99.90
21149;DHT22;10732;51.472;6.466;2023-09-12T04:07:55;18.40;99.90
21149;DHT22;10732;51.472;6.466;2023-09-12T04:10:21;18.50;99.90
21149;DHT22;10732;51.472;6.466;2023-09-12T04:12:47;18.50;99.90
21149;DHT22;10732;51.472;6.466;2023-09-12T04:15:12;18.50;99.90
21149;DHT22;10732;51.472;6.466;2023-09-12T04:17:38;18.60;99.90
21149;DHT22;10732;51.472;6.466;2023-09-12T04:20:04;18.60;99.90
21149;DHT22;10732;51.472;6.466;2023-09-12T04:22:30;18.60;99.90
21149;DHT22;10732;51.472;6.466;2023-09-12T04:24:55;18.70;99.90
21149;DHT22;10732;51.472;6.466;2023-09-12T04:27:21;18.70;99.90
21149;DHT22;10732;51.472;6.466;2023-09-12T04:29:47;18.70;99.90
21149;DHT22;10732;51.472;6.466;2023-09-12T04:32:12;18.70;99.90
21149;DHT22;10732;51.472;6.466;2023-09-12T04:34:38;18.70;99.90
21149;DHT22;10732;51.472;6.466;2023-09-12T04:37:04;18.70;99.90
21149;DHT22;10732;51.472;6.466;2023-09-12T04:39:31;18.70;99.90
21149;DHT22;10732;51.472;6.466;2023-09-12T04:41:56;18.70;99.90
21149;DHT22;10732;51.472;6.466;2023-09-12T04:44:22;18.70;99.90
21149;DHT22;10732;51.472;6.466;2023-09-12T04:46:47;18.70;99.90
21149;DHT22;10732;51.472;6.466;2023-09-12T04:49:14;18.60;99.90
21149;DHT22;10732;51.472;6.466;2023-09-12T04:51:39;18.60;99.90
21149;DHT22;10732;51.472;6.466;2023-09-12T04:54:05;18.60;99.90
21149;DHT22;10732;51.472;6.466;2023-09-12T04:56:31;18.70;99.90
21149;DHT22;10732;51.472;6.466;2023-09-12T04:58:56;18.60;99.90
21149;DHT22;10732;51.472;6.466;2023-09-12T05:01:22;18.70;99.90
21149;DHT22;10732;51.472;6.466;2023-09-12T05:03:47;18.70;99.90
21149;DHT22;10732;51.472;6.466;2023-09-12T05:06:13;18.80;99.90
21149;DHT22;10732;51.472;6.466;2023-09-12T05:08:39;18.80;99.90
21149;DHT22;10732;51.472;6.466;2023-09-12T05:11:04;18.70;99.90
21149;DHT22;10732;51.472;6.466;2023-09-12T05:13:30;18.70;99.90
21149;DHT22;10732;51.472;6.466;2023-09-12T05:15:56;18.70;99.90
21149;DHT22;10732;51.472;6.466;2023-09-12T05:18:22;18.70;99.90
21149;DHT22;10732;51.472;6.466;2023-09-12T05:20:48;18.70;99.90
21149;DHT22;10732;51.472;6.466;2023-09-12T05:23:13;18.70;99.90
21149;DHT22;10732;51.472;6.466;2023-09-12T05:25:39;18.70;99.90
21149;DHT22;10732;51.472;6.466;2023-09-12T05:28:04;18.80;99.90
21149;DHT22;10732;51.472;6.466;2023-09-12T05:30:30;18.80;99.90
21149;DHT22;10732;51.472;6.466;2023-09-12T05:32:56;18.80;99.90
21149;DHT22;10732;51.472;6.466;2023-09-12T05:35:21;18.70;99.90
21149;DHT22;10732;51.472;6.466;2023-09-12T05:37:47;18.70;99.90
21149;DHT22;10732;51.472;6.466;2023-09-12T05:40:13;18.80;99.90
21149;DHT22;10732;51.472;6.466;2023-09-12T05:42:38;18.80;99.90
21149;DHT22;10732;51.472;6.466;2023-09-12T05:45:05;18.80;99.90
21149;DHT22;10732;51.472;6.466;2023-09-12T05:47:31;18.70;99.90
21149;DHT22;10732;51.472;6.466;2023-09-12T05:49:57;18.70;99.90
21149;DHT22;10732;51.472;6.466;2023-09-12T05:52:24;18.70;99.90
21149;DHT22;10732;51.472;6.466;2023-09-12T05:54:50;18.80;99.90
21149;DHT22;10732;51.472;6.466;2023-09-12T05:57:16;18.70;99.90
21149;DHT22;10732;51.472;6.466;2023-09-12T05:59:41;18.60;99.90
21149;DHT22;10732;51.472;6.466;2023-09-12T06:02:07;18.60;99.90
21149;DHT22;10732;51.472;6.466;2023-09-12T06:04:35;18.60;99.90
21149;DHT22;10732;51.472;6.466;2023-09-12T06:07:02;18.60;99.90
21149;DHT22;10732;51.472;6.466;2023-09-12T06:09:28;18.50;99.90
21149;DHT22;10732;51.472;6.466;2023-09-12T06:11:53;18.50;99.90
21149;DHT22;10732;51.472;6.466;2023-09-12T06:14:19;18.50;99.90
21149;DHT22;10732;51.472;6.466;2023-09-12T06:16:45;18.50;99.90
21149;DHT22;10732;51.472;6.466;2023-09-12T06:19:10;18.50;99.90
21149;DHT22;10732;51.472;6.466;2023-09-12T06:21:36;18.50;99.90
21149;DHT22;10732;51.472;6.466;2023-09-12T06:24:10;18.50;99.90
21149;DHT22;10732;51.472;6.466;2023-09-12T06:26:37;18.60;99.90
21149;DHT22;10732;51.472;6.466;2023-09-12T06:29:02;18.60;99.90
21149;DHT22;10732;51.472;6.466;2023-09-12T06:31:28;18.60;99.90
21149;DHT22;10732;51.472;6.466;2023-09-12T06:33:54;18.60;99.90
21149;DHT22;10732;51.472;6.466;2023-09-12T06:36:19;18.60;99.90
21149;DHT22;10732;51.472;6.466;2023-09-12T06:38:45;18.50;99.90
21149;DHT22;10732;51.472;6.466;2023-09-12T06:41:10;18.50;99.90
21149;DHT22;10732;51.472;6.466;2023-09-12T06:43:36;18.50;99.90
21149;DHT22;10732;51.472;6.466;2023-09-12T06:46:01;18.50;99.90
21149;DHT22;10732;51.472;6.466;2023-09-12T06:48:27;18.50;99.90
21149;DHT22;10732;51.472;6.466;2023-09-12T06:50:54;18.50;99.90
21149;DHT22;10732;51.472;6.466;2023-09-12T06:53:19;18.40;99.90
21149;DHT22;10732;51.472;6.466;2023-09-12T06:55:45;18.20;99.90
21149;DHT22;10732;51.472;6.466;2023-09-12T06:58:10;18.20;99.90
21149;DHT22;10732;51.472;6.466;2023-09-12T07:00:36;18.20;99.90
21149;DHT22;10732;51.472;6.466;2023-09-12T07:03:02;18.20;99.90
21149;DHT22;10732;51.472;6.466;2023-09-12T07:05:28;18.10;99.90
21149;DHT22;10732;51.472;6.466;2023-09-12T07:07:53;18.10;99.90
21149;DHT22;10732;51.472;6.466;2023-09-12T07:10:19;18.00;99.90
21149;DHT22;10732;51.472;6.466;2023-09-12T07:12:44;18.00;99.90
21149;DHT22;10732;51.472;6.466;2023-09-12T07:15:10;18.10;99.90
21149;DHT22;10732;51.472;6.466;2023-09-12T07:17:35;18.10;99.90
21149;DHT22;10732;51.472;6.466;2023-09-12T07:20:01;18.20;99.90
21149;DHT22;10732;51.472;6.466;2023-09-12T07:22:27;18.10;99.90
21149;DHT22;10732;51.472;6.466;2023-09-12T07:24:52;18.10;99.90
21149;DHT22;10732;51.472;6.466;2023-09-12T07:27:18;18.20;99.90
21149;DHT22;10732;51.472;6.466;2023-09-12T07:29:43;18.20;99.90
21149;DHT22;10732;51.472;6.466;2023-09-12T07:32:09;18.20;99.90
21149;DHT22;10732;51.472;6.466;2023-09-12T07:34:34;18.30;99.90
21149;DHT22;10732;51.472;6.466;2023-09-12T07:37:00;18.30;99.90
21149;DHT22;10732;51.472;6.466;2023-09-12T07:39:26;18.40;99.90
21149;DHT22;10732;51.472;6.466;2023-09-12T07:41:51;18.50;99.90
21149;DHT22;10732;51.472;6.466;2023-09-12T07:44:17;18.50;99.90
21149;DHT22;10732;51.472;6.466;2023-09-12T07:46:43;18.40;99.90
21149;DHT22;10732;51.472;6.466;2023-09-12T07:49:08;18.40;99.90
21149;DHT22;10732;51.472;6.466;2023-09-12T07:51:34;18.50;99.90
21149;DHT22;10732;51.472;6.466;2023-09-12T07:54:00;18.60;99.90
21149;DHT22;10732;51.472;6.466;2023-09-12T07:56:26;18.60;99.90
21149;DHT22;10732;51.472;6.466;2023-09-12T07:58:51;18.60;99.90
21149;DHT22;10732;51.472;6.466;2023-09-12T08:01:17;18.70;99.90
21149;DHT22;10732;51.472;6.466;2023-09-12T08:03:43;18.90;99.90
21149;DHT22;10732;51.472;6.466;2023-09-12T08:06:08;18.90;99.90
21149;DHT22;10732;51.472;6.466;2023-09-12T08:08:34;18.90;99.90
21149;DHT22;10732;51.472;6.466;2023-09-12T08:11:00;18.90;99.90
21149;DHT22;10732;51.472;6.466;2023-09-12T08:13:26;19.20;99.90
21149;DHT22;10732;51.472;6.466;2023-09-12T08:15:53;19.20;99.90
21149;DHT22;10732;51.472;6.466;2023-09-12T08:18:19;19.40;99.90
21149;DHT22;10732;51.472;6.466;2023-09-12T08:20:44;19.60;99.90
21149;DHT22;10732;51.472;6.466;2023-09-12T08:23:10;19.90;99.90
21149;DHT22;10732;51.472;6.466;2023-09-12T08:25:35;19.90;99.90
21149;DHT22;10732;51.472;6.466;2023-09-12T08:28:01;20.10;99.90
21149;DHT22;10732;51.472;6.466;2023-09-12T08:30:27;20.90;99.90
21149;DHT22;10732;51.472;6.466;2023-09-12T08:32:55;22.50;99.90
21149;DHT22;10732;51.472;6.466;2023-09-12T08:35:20;24.00;99.90
21149;DHT22;10732;51.472;6.466;2023-09-12T08:37:46;25.20;99.90
21149;DHT22;10732;51.472;6.466;2023-09-12T08:40:11;26.10;99.90
21149;DHT22;10732;51.472;6.466;2023-09-12T08:42:42;25.70;99.90
21149;DHT22;10732;51.472;6.466;2023-09-12T08:45:15;25.10;99.90
21149;DHT22;10732;51.472;6.466;2023-09-12T08:47:43;25.10;99.90
21149;DHT22;10732;51.472;6.466;2023-09-12T08:50:14;25.00;99.90
21149;DHT22;10732;51.472;6.466;2023-09-12T08:52:41;25.20;99.90
21149;DHT22;10732;51.472;6.466;2023-09-12T08:55:10;25.90;99.90
21149;DHT22;10732;51.472;6.466;2023-09-12T08:57:38;26.30;99.90
21149;DHT22;10732;51.472;6.466;2023-09-12T09:00:04;26.30;99.90
21149;DHT22;10732;51.472;6.466;2023-09-12T09:02:33;26.60;99.90
21149;DHT22;10732;51.472;6.466;2023-09-12T09:05:00;26.30;99.90
21149;DHT22;10732;51.472;6.466;2023-09-12T09:07:28;26.20;99.90
21149;DHT22;10732;51.472;6.466;2023-09-12T09:09:55;26.60;99.90
21149;DHT22;10732;51.472;6.466;2023-09-12T09:12:21;27.40;99.90
21149;DHT22;10732;51.472;6.466;2023-09-12T09:14:47;27.30;99.90
21149;DHT22;10732;51.472;6.466;2023-09-12T09:17:12;27.70;99.90
21149;DHT22;10732;51.472;6.466;2023-09-12T09:19:43;27.60;99.90
21149;DHT22;10732;51.472;6.466;2023-09-12T09:22:09;28.10;99.90
21149;DHT22;10732;51.472;6.466;2023-09-12T09:24:35;28.10;99.90
21149;DHT22;10732;51.472;6.466;2023-09-12T09:27:00;28.20;99.90
21149;DHT22;10732;51.472;6.466;2023-09-12T09:29:27;27.70;99.90
21149;DHT22;10732;51.472;6.466;2023-09-12T09:32:02;26.60;99.90
21149;DHT22;10732;51.472;6.466;2023-09-12T09:34:30;26.00;99.90
21149;DHT22;10732;51.472;6.466;2023-09-12T09:36:57;26.00;99.90
21149;DHT22;10732;51.472;6.466;2023-09-12T09:39:24;26.90;99.90
21149;DHT22;10732;51.472;6.466;2023-09-12T09:41:55;28.00;99.90
21149;DHT22;10732;51.472;6.466;2023-09-12T09:44:23;28.30;99.90
21149;DHT22;10732;51.472;6.466;2023-09-12T09:46:59;28.20;99.90
21149;DHT22;10732;51.472;6.466;2023-09-12T09:49:28;28.90;99.90
21149;DHT22;10732;51.472;6.466;2023-09-12T09:51:56;28.80;99.90
21149;DHT22;10732;51.472;6.466;2023-09-12T09:54:25;28.40;99.90
21149;DHT22;10732;51.472;6.466;2023-09-12T09:56:55;28.80;99.90
21149;DHT22;10732;51.472;6.466;2023-09-12T09:59:27;29.50;99.90
21149;DHT22;10732;51.472;6.466;2023-09-12T10:01:59;29.10;99.90
21149;DHT22;10732;51.472;6.466;2023-09-12T10:04:27;29.00;99.90
21149;DHT22;10732;51.472;6.466;2023-09-12T10:06:57;29.30;99.90
21149;DHT22;10732;51.472;6.466;2023-09-12T10:09:26;29.60;99.90
21149;DHT22;10732;51.472;6.466;2023-09-12T10:11:52;30.10;99.90
21149;DHT22;10732;51.472;6.466;2023-09-12T10:14:20;30.50;99.90
21149;DHT22;10732;51.472;6.466;2023-09-12T10:16:48;29.50;99.90
21149;DHT22;10732;51.472;6.466;2023-09-12T10:19:24;29.50;99.90
21149;DHT22;10732;51.472;6.466;2023-09-12T10:24:23;30.60;99.90
21149;DHT22;10732;51.472;6.466;2023-09-12T10:26:50;30.70;99.90
21149;DHT22;10732;51.472;6.466;2023-09-12T10:29:17;31.10;99.90
21149;DHT22;10732;51.472;6.466;2023-09-12T10:31:43;30.30;99.90
21149;DHT22;10732;51.472;6.466;2023-09-12T10:34:11;30.40;99.90
21149;DHT22;10732;51.472;6.466;2023-09-12T10:36:39;29.80;99.90
21149;DHT22;10732;51.472;6.466;2023-09-12T10:39:06;28.60;99.90
21149;DHT22;10732;51.472;6.466;2023-09-12T10:41:33;28.60;99.90
21149;DHT22;10732;51.472;6.466;2023-09-12T10:44:01;29.00;99.90
21149;DHT22;10732;51.472;6.466;2023-09-12T10:46:28;28.60;99.90
21149;DHT22;10732;51.472;6.466;2023-09-12T10:48:54;27.60;99.90
21149;DHT22;10732;51.472;6.466;2023-09-12T10:51:19;27.40;99.90
21149;DHT22;10732;51.472;6.466;2023-09-12T10:53:49;28.10;99.90
21149;DHT22;10732;51.472;6.466;2023-09-12T10:56:21;28.00;99.90
21149;DHT22;10732;51.472;6.466;2023-09-12T11:01:34;28.10;99.90
21149;DHT22;10732;51.472;6.466;2023-09-12T11:06:45;28.20;99.90
21149;DHT22;10732;51.472;6.466;2023-09-12T11:11:41;28.30;99.90
21149;DHT22;10732;51.472;6.466;2023-09-12T11:14:07;28.20;99.90
21149;DHT22;10732;51.472;6.466;2023-09-12T11:16:33;28.60;99.90
21149;DHT22;10732;51.472;6.466;2023-09-12T11:19:22;28.00;99.90
21149;DHT22;10732;51.472;6.466;2023-09-12T11:21:52;29.00;99.90
21149;DHT22;10732;51.472;6.466;2023-09-12T11:24:19;29.00;99.90
21149;DHT22;10732;51.472;6.466;2023-09-12T11:26:55;29.10;99.90
21149;DHT22;10732;51.472;6.466;2023-09-12T11:29:21;28.90;99.90
21149;DHT22;10732;51.472;6.466;2023-09-12T11:31:53;27.50;99.90
21149;DHT22;10732;51.472;6.466;2023-09-12T11:34:19;26.90;99.90
21149;DHT22;10732;51.472;6.466;2023-09-12T11:36:46;26.90;99.90
21149;DHT22;10732;51.472;6.466;2023-09-12T11:39:28;26.60;99.90
21149;DHT22;10732;51.472;6.466;2023-09-12T11:41:56;26.70;99.90
21149;DHT22;10732;51.472;6.466;2023-09-12T11:44:22;27.60;99.90
21149;DHT22;10732;51.472;6.466;2023-09-12T11:46:49;28.20;99.90
21149;DHT22;10732;51.472;6.466;2023-09-12T11:49:16;28.00;99.90
21149;DHT22;10732;51.472;6.466;2023-09-12T11:51:53;27.60;99.90
21149;DHT22;10732;51.472;6.466;2023-09-12T11:54:20;26.70;99.90
21149;DHT22;10732;51.472;6.466;2023-09-12T11:56:49;27.20;99.90
21149;DHT22;10732;51.472;6.466;2023-09-12T11:59:16;27.20;99.90
21149;DHT22;10732;51.472;6.466;2023-09-12T12:01:46;27.00;99.90
21149;DHT22;10732;51.472;6.466;2023-09-12T12:04:12;26.40;99.90
21149;DHT22;10732;51.472;6.466;2023-09-12T12:06:38;26.20;99.90
21149;DHT22;10732;51.472;6.466;2023-09-12T12:09:03;26.00;99.90
21149;DHT22;10732;51.472;6.466;2023-09-12T12:11:30;26.20;99.90
21149;DHT22;10732;51.472;6.466;2023-09-12T12:13:56;26.50;99.90
21149;DHT22;10732;51.472;6.466;2023-09-12T12:16:22;26.80;99.90
21149;DHT22;10732;51.472;6.466;2023-09-12T12:18:47;26.70;99.90
21149;DHT22;10732;51.472;6.466;2023-09-12T12:21:14;26.80;99.90
21149;DHT22;10732;51.472;6.466;2023-09-12T12:23:39;26.40;99.90
21149;DHT22;10732;51.472;6.466;2023-09-12T12:26:07;26.40;99.90
21149;DHT22;10732;51.472;6.466;2023-09-12T12:28:35;27.00;99.90
21149;DHT22;10732;51.472;6.466;2023-09-12T12:31:01;27.20;99.90
21149;DHT22;10732;51.472;6.466;2023-09-12T12:33:27;27.20;99.90
21149;DHT22;10732;51.472;6.466;2023-09-12T12:36:02;27.20;99.90
21149;DHT22;10732;51.472;6.466;2023-09-12T12:38:35;26.80;99.90
21149;DHT22;10732;51.472;6.466;2023-09-12T12:41:01;27.20;99.90
21149;DHT22;10732;51.472;6.466;2023-09-12T12:43:26;27.10;99.90
21149;DHT22;10732;51.472;6.466;2023-09-12T12:45:57;26.90;99.90
21149;DHT22;10732;51.472;6.466;2023-09-12T12:48:30;26.90;99.90
21149;DHT22;10732;51.472;6.466;2023-09-12T12:50:56;26.70;99.90
21149;DHT22;10732;51.472;6.466;2023-09-12T12:53:42;27.00;99.90
21149;DHT22;10732;51.472;6.466;2023-09-12T12:56:08;27.10;99.90
21149;DHT22;10732;51.472;6.466;2023-09-12T12:58:33;27.10;99.90
21149;DHT22;10732;51.472;6.466;2023-09-12T13:01:00;26.70;99.90
21149;DHT22;10732;51.472;6.466;2023-09-12T13:03:26;26.70;99.90
21149;DHT22;10732;51.472;6.466;2023-09-12T13:05:51;27.20;99.90
21149;DHT22;10732;51.472;6.466;2023-09-12T13:08:17;27.10;99.90
21149;DHT22;10732;51.472;6.466;2023-09-12T13:10:43;27.10;99.90
21149;DHT22;10732;51.472;6.466;2023-09-12T13:13:09;27.40;99.90
21149;DHT22;10732;51.472;6.466;2023-09-12T13:15:35;27.70;99.90
21149;DHT22;10732;51.472;6.466;2023-09-12T13:18:00;27.60;99.90
21149;DHT22;10732;51.472;6.466;2023-09-12T13:20:26;27.90;99.90
21149;DHT22;10732;51.472;6.466;2023-09-12T13:22:51;28.00;99.90
21149;DHT22;10732;51.472;6.466;2023-09-12T13:25:17;27.80;99.90
21149;DHT22;10732;51.472;6.466;2023-09-12T13:27:42;27.20;99.90
21149;DHT22;10732;51.472;6.466;2023-09-12T13:30:08;26.70;99.90
21149;DHT22;10732;51.472;6.466;2023-09-12T13:32:34;26.60;99.90
21149;DHT22;10732;51.472;6.466;2023-09-12T13:34:59;26.30;99.90
21149;DHT22;10732;51.472;6.466;2023-09-12T13:37:25;26.20;99.90
21149;DHT22;10732;51.472;6.466;2023-09-12T13:39:53;26.40;99.90
21149;DHT22;10732;51.472;6.466;2023-09-12T13:42:18;26.50;99.90
21149;DHT22;10732;51.472;6.466;2023-09-12T13:44:46;26.50;99.90
21149;DHT22;10732;51.472;6.466;2023-09-12T13:47:12;26.90;99.90
21149;DHT22;10732;51.472;6.466;2023-09-12T13:49:37;26.70;99.90
21149;DHT22;10732;51.472;6.466;2023-09-12T13:52:03;26.80;99.90
21149;DHT22;10732;51.472;6.466;2023-09-12T13:54:29;26.80;99.90
21149;DHT22;10732;51.472;6.466;2023-09-12T13:56:55;26.80;99.90
21149;DHT22;10732;51.472;6.466;2023-09-12T13:59:20;27.00;99.90
21149;DHT22;10732;51.472;6.466;2023-09-12T14:01:46;27.00;99.90
21149;DHT22;10732;51.472;6.466;2023-09-12T14:04:12;26.70;99.90
21149;DHT22;10732;51.472;6.466;2023-09-12T14:06:39;26.50;99.90
21149;DHT22;10732;51.472;6.466;2023-09-12T14:09:05;26.00;99.90
21149;DHT22;10732;51.472;6.466;2023-09-12T14:11:30;26.30;99.90
21149;DHT22;10732;51.472;6.466;2023-09-12T14:13:56;26.40;99.90
21149;DHT22;10732;51.472;6.466;2023-09-12T14:16:21;26.30;99.90
21149;DHT22;10732;51.472;6.466;2023-09-12T14:18:47;26.40;99.90
21149;DHT22;10732;51.472;6.466;2023-09-12T14:21:12;26.60;99.90
21149;DHT22;10732;51.472;6.466;2023-09-12T14:23:38;26.20;99.90
21149;DHT22;10732;51.472;6.466;2023-09-12T14:26:04;26.10;99.90
21149;DHT22;10732;51.472;6.466;2023-09-12T14:28:29;25.90;99.90
21149;DHT22;10732;51.472;6.466;2023-09-12T14:30:57;25.90;99.90
21149;DHT22;10732;51.472;6.466;2023-09-12T14:33:23;25.80;99.90
21149;DHT22;10732;51.472;6.466;2023-09-12T14:35:49;25.80;99.90
21149;DHT22;10732;51.472;6.466;2023-09-12T14:38:14;25.70;99.90
21149;DHT22;10732;51.472;6.466;2023-09-12T14:40:40;25.70;99.90
21149;DHT22;10732;51.472;6.466;2023-09-12T14:43:05;25.60;99.90
21149;DHT22;10732;51.472;6.466;2023-09-12T14:45:32;25.50;99.90
21149;DHT22;10732;51.472;6.466;2023-09-12T14:47:58;25.40;99.90
21149;DHT22;10732;51.472;6.466;2023-09-12T14:50:23;25.50;99.90
21149;DHT22;10732;51.472;6.466;2023-09-12T14:52:51;25.60;99.90
21149;DHT22;10732;51.472;6.466;2023-09-12T14:55:16;25.60;99.90
21149;DHT22;10732;51.472;6.466;2023-09-12T14:57:42;25.60;99.90
21149;DHT22;10732;51.472;6.466;2023-09-12T15:00:08;25.60;99.90
21149;DHT22;10732;51.472;6.466;2023-09-12T15:02:34;25.40;99.90
21149;DHT22;10732;51.472;6.466;2023-09-12T15:05:00;25.20;99.90
21149;DHT22;10732;51.472;6.466;2023-09-12T15:07:27;25.30;99.90
21149;DHT22;10732;51.472;6.466;2023-09-12T15:09:54;25.40;99.90
21149;DHT22;10732;51.472;6.466;2023-09-12T15:12:20;25.30;99.90
21149;DHT22;10732;51.472;6.466;2023-09-12T15:14:46;25.40;99.90
21149;DHT22;10732;51.472;6.466;2023-09-12T15:17:11;25.40;99.90
21149;DHT22;10732;51.472;6.466;2023-09-12T15:19:37;25.60;99.90
21149;DHT22;10732;51.472;6.466;2023-09-12T15:22:02;25.60;99.90
21149;DHT22;10732;51.472;6.466;2023-09-12T15:24:28;25.70;99.90
21149;DHT22;10732;51.472;6.466;2023-09-12T15:26:53;25.90;99.90
21149;DHT22;10732;51.472;6.466;2023-09-12T15:29:19;25.90;99.90
21149;DHT22;10732;51.472;6.466;2023-09-12T15:31:45;25.80;99.90
21149;DHT22;10732;51.472;6.466;2023-09-12T15:34:10;25.70;99.90
21149;DHT22;10732;51.472;6.466;2023-09-12T15:36:43;25.60;99.90
21149;DHT22;10732;51.472;6.466;2023-09-12T15:39:08;25.60;99.90
21149;DHT22;10732;51.472;6.466;2023-09-12T15:41:35;25.60;99.90